Time;durP1;ratioP1;P1;durP2;ratioP2;P2;SDS_P1;SDS_P2;PMS_P1;PMS_P2;Temp;Humidity;BMP_temperature;BMP_pressure;BME280_temperature;BME280_humidity;BME280_pressure;Samples;Min_cycle;Max_cycle;Signal;HPM_P1;HPM_P2
2022/11/23 00:01:20;;;;;;;2.85;1.30;;;6.40;93.00;;;;;;4936329;29;20289;-65
2022/11/23 00:03:48;;;;;;;3.75;1.60;;;6.40;92.90;;;;;;4935803;29;20230;-66
2022/11/23 00:06:16;;;;;;;4.20;1.30;;;6.40;93.20;;;;;;4936188;29;20194;-66
2022/11/23 00:08:45;;;;;;;3.75;1.35;;;6.50;92.90;;;;;;4935785;29;20230;-66
2022/11/23 00:11:12;;;;;;;7.10;1.55;;;6.60;93.00;;;;;;4936281;29;20581;-67
2022/11/23 00:13:41;;;;;;;3.13;1.58;;;6.60;92.90;;;;;;4936055;29;20269;-66
2022/11/23 00:16:09;;;;;;;3.92;1.40;;;6.60;92.70;;;;;;4936229;29;20210;-66
2022/11/23 00:18:36;;;;;;;5.78;1.80;;;6.70;92.60;;;;;;4936132;29;20253;-66
2022/11/23 00:21:07;;;;;;;2.83;1.40;;;6.70;92.40;;;;;;4935662;29;20605;-66
2022/11/23 00:23:34;;;;;;;2.30;1.05;;;6.70;92.30;;;;;;4935900;29;20828;-66
2022/11/23 00:26:02;;;;;;;4.82;1.30;;;6.70;92.10;;;;;;4935926;29;20202;-65
2022/11/23 00:28:29;;;;;;;3.90;1.42;;;6.70;92.00;;;;;;4935889;29;20195;-65
2022/11/23 00:30:58;;;;;;;7.57;1.50;;;6.70;91.90;;;;;;4935902;29;20257;-66
2022/11/23 00:33:25;;;;;;;3.95;1.92;;;6.80;91.80;;;;;;4935680;29;20197;-66
2022/11/23 00:36:00;;;;;;;3.08;1.55;;;6.80;91.40;;;;;;4935907;29;20281;-66
2022/11/23 00:38:28;;;;;;;3.25;1.45;;;6.70;91.40;;;;;;4935531;29;20240;-65
2022/11/23 00:40:59;;;;;;;2.50;1.30;;;6.70;91.40;;;;;;4935415;29;20298;-65
2022/11/23 00:43:27;;;;;;;2.25;1.00;;;6.70;91.50;;;;;;4935657;29;20230;-66
2022/11/23 00:46:05;;;;;;;2.00;1.10;;;6.70;91.40;;;;;;4935509;29;20219;-66
2022/11/23 00:48:32;;;;;;;3.05;1.20;;;6.70;91.40;;;;;;4935823;29;20202;-66
2022/11/23 00:51:01;;;;;;;5.40;1.67;;;6.80;91.40;;;;;;4935641;29;20195;-66
2022/11/23 00:53:28;;;;;;;4.60;1.45;;;6.80;91.30;;;;;;4935693;29;20254;-65
2022/11/23 00:55:56;;;;;;;3.35;1.20;;;6.80;91.50;;;;;;4935529;29;20234;-66
2022/11/23 00:58:24;;;;;;;3.88;1.50;;;6.80;91.10;;;;;;4935561;29;20223;-66
2022/11/23 01:01:01;;;;;;;3.58;1.17;;;6.80;91.20;;;;;;4935168;29;20198;-66
2022/11/23 01:03:30;;;;;;;5.57;1.20;;;6.80;91.20;;;;;;4934911;29;20234;-66
2022/11/23 01:06:03;;;;;;;2.60;1.20;;;6.90;91.10;;;;;;4935551;29;20202;-66
2022/11/23 01:08:30;;;;;;;4.38;1.80;;;6.90;90.90;;;;;;4935492;29;20194;-66
2022/11/23 01:11:02;;;;;;;3.22;2.00;;;6.90;90.60;;;;;;4935266;29;20198;-66
2022/11/23 01:13:30;;;;;;;3.53;1.50;;;6.90;90.60;;;;;;4935083;29;20290;-66
2022/11/23 01:15:57;;;;;;;4.22;1.75;;;6.90;90.70;;;;;;4935406;29;20206;-67
2022/11/23 01:18:24;;;;;;;3.30;1.40;;;6.90;90.70;;;;;;4935245;29;20191;-66
2022/11/23 01:20:53;;;;;;;2.65;1.20;;;6.90;90.50;;;;;;4935320;29;20198;-66
2022/11/23 01:23:20;;;;;;;1.70;0.80;;;6.80;90.40;;;;;;4935435;29;20202;-66
2022/11/23 01:25:47;;;;;;;2.55;1.23;;;6.80;90.30;;;;;;4935358;29;20190;-66
2022/11/23 01:28:14;;;;;;;5.80;1.25;;;6.80;90.50;;;;;;4934835;29;20194;-67
2022/11/23 01:30:41;;;;;;;3.97;1.20;;;6.80;90.20;;;;;;4935165;29;20202;-66
2022/11/23 01:33:08;;;;;;;3.80;1.05;;;6.70;90.20;;;;;;4934782;29;20305;-66
2022/11/23 01:35:35;;;;;;;3.30;1.40;;;6.70;90.50;;;;;;4935069;29;20203;-66
2022/11/23 01:38:03;;;;;;;2.40;1.02;;;6.70;90.50;;;;;;4935238;29;20544;-66
2022/11/23 01:40:30;;;;;;;3.70;1.73;;;6.80;90.60;;;;;;4935113;29;20226;-66
2022/11/23 01:43:00;;;;;;;3.13;1.40;;;6.80;90.20;;;;;;4935144;29;20234;-66
2022/11/23 01:45:37;;;;;;;3.97;1.23;;;6.80;90.10;;;;;;4935283;29;20294;-66
2022/11/23 01:48:09;;;;;;;3.20;1.25;;;6.70;90.00;;;;;;4935478;29;20525;-66
2022/11/23 01:50:38;;;;;;;5.07;1.83;;;6.70;90.10;;;;;;4934853;29;20253;-67
2022/11/23 01:53:06;;;;;;;3.10;1.67;;;6.70;90.50;;;;;;4934727;29;20303;-66
2022/11/23 01:55:35;;;;;;;7.18;1.70;;;6.60;90.20;;;;;;4934904;29;20293;-66
2022/11/23 01:58:04;;;;;;;3.45;1.20;;;6.60;90.10;;;;;;4934656;29;20194;-66
2022/11/23 02:00:31;;;;;;;5.85;1.30;;;6.70;90.10;;;;;;4934754;29;20242;-66
2022/11/23 02:03:03;;;;;;;5.35;1.65;;;6.70;90.10;;;;;;4934751;29;20217;-66
2022/11/23 02:05:35;;;;;;;3.10;1.45;;;6.70;90.20;;;;;;4934754;29;20197;-66
2022/11/23 02:08:03;;;;;;;6.18;1.10;;;6.80;90.30;;;;;;4935038;29;20194;-66
2022/11/23 02:10:32;;;;;;;3.30;1.15;;;6.70;90.50;;;;;;4934808;29;20628;-66
2022/11/23 02:13:06;;;;;;;2.75;1.20;;;6.80;90.60;;;;;;4934904;29;20229;-67
2022/11/23 02:15:35;;;;;;;4.47;1.40;;;6.80;90.70;;;;;;4938309;29;20202;-66
2022/11/23 02:18:04;;;;;;;3.17;1.83;;;6.80;90.90;;;;;;4938120;29;20202;-66
2022/11/23 02:20:32;;;;;;;5.90;1.40;;;6.70;90.90;;;;;;4938358;29;20601;-67
2022/11/23 02:23:12;;;;;;;4.43;1.45;;;6.70;91.10;;;;;;4938165;29;20202;-66
2022/11/23 02:25:51;;;;;;;3.95;1.15;;;6.70;91.00;;;;;;4937973;29;20193;-67
2022/11/23 02:28:24;;;;;;;10.30;1.08;;;6.80;90.90;;;;;;4937774;29;20201;-66
2022/11/23 02:30:54;;;;;;;2.15;1.05;;;6.80;90.70;;;;;;4938103;29;20198;-66
2022/11/23 02:33:21;;;;;;;3.53;1.08;;;6.60;90.60;;;;;;4937879;29;20230;-66
2022/11/23 02:35:50;;;;;;;2.15;1.10;;;6.70;90.90;;;;;;4937921;29;20544;-66
2022/11/23 02:38:22;;;;;;;5.90;1.30;;;6.60;90.70;;;;;;4937951;29;20537;-66
2022/11/23 02:40:51;;;;;;;4.40;1.13;;;6.60;90.60;;;;;;4937922;29;20597;-67
2022/11/23 02:43:18;;;;;;;3.13;1.20;;;6.50;90.50;;;;;;4937743;29;20199;-67
2022/11/23 02:45:50;;;;;;;3.00;1.00;;;6.50;90.60;;;;;;4937945;29;20236;-66
2022/11/23 02:48:17;;;;;;;3.90;1.27;;;6.60;90.80;;;;;;4938010;29;20581;-66
2022/11/23 02:50:45;;;;;;;3.75;1.60;;;6.60;90.70;;;;;;4937708;29;20198;-67
2022/11/23 02:53:13;;;;;;;4.97;2.00;;;6.50;90.60;;;;;;4937627;29;20538;-66
2022/11/23 02:55:40;;;;;;;6.65;1.35;;;6.50;90.40;;;;;;4937589;29;20195;-66
2022/11/23 02:58:09;;;;;;;9.15;1.75;;;6.50;90.70;;;;;;4937614;29;20206;-66
2022/11/23 03:00:36;;;;;;;5.40;1.42;;;6.40;90.80;;;;;;4937654;29;20237;-67
2022/11/23 03:03:04;;;;;;;2.70;1.02;;;6.40;91.00;;;;;;4937398;29;20230;-66
2022/11/23 03:05:32;;;;;;;4.00;1.42;;;6.40;91.10;;;;;;4937578;29;20246;-66
2022/11/23 03:07:59;;;;;;;5.20;1.17;;;6.40;90.90;;;;;;4937607;29;20611;-66
2022/11/23 03:10:27;;;;;;;4.22;1.23;;;6.40;91.10;;;;;;4937402;29;20657;-66
2022/11/23 03:12:55;;;;;;;3.25;1.60;;;6.40;91.40;;;;;;4936847;29;20641;-66
2022/11/23 03:15:24;;;;;;;3.80;1.10;;;6.40;91.60;;;;;;4936843;29;20191;-66
2022/11/23 03:17:52;;;;;;;2.92;0.95;;;6.30;91.80;;;;;;4937153;29;20198;-66
2022/11/23 03:20:19;;;;;;;5.95;1.52;;;6.30;91.90;;;;;;4937223;29;20550;-68
2022/11/23 03:22:46;;;;;;;4.07;1.45;;;6.30;92.00;;;;;;4937140;29;20262;-67
2022/11/23 03:25:14;;;;;;;2.83;1.25;;;6.30;92.00;;;;;;4937006;29;20229;-66
2022/11/23 03:27:41;;;;;;;3.35;1.40;;;6.20;92.10;;;;;;4936921;29;20654;-66
2022/11/23 03:30:09;;;;;;;3.80;1.67;;;6.20;92.30;;;;;;4937109;29;20198;-66
2022/11/23 03:32:41;;;;;;;3.15;0.90;;;6.30;92.30;;;;;;4936791;29;20218;-66
2022/11/23 03:35:09;;;;;;;2.38;0.98;;;6.30;92.40;;;;;;4936869;29;20206;-67
2022/11/23 03:37:36;;;;;;;2.88;1.40;;;6.20;92.20;;;;;;4936700;29;20195;-66
2022/11/23 03:40:04;;;;;;;5.85;1.50;;;6.10;92.20;;;;;;4936719;29;20195;-67
2022/11/23 03:42:32;;;;;;;3.35;1.55;;;6.10;92.20;;;;;;4936470;29;20254;-66
2022/11/23 03:44:59;;;;;;;3.55;1.30;;;6.10;92.20;;;;;;4936493;29;20191;-67
2022/11/23 03:47:27;;;;;;;9.43;1.52;;;6.10;92.50;;;;;;4936275;29;20198;-66
2022/11/23 03:49:55;;;;;;;2.58;1.20;;;6.10;92.60;;;;;;4936743;29;20600;-66
2022/11/23 03:52:22;;;;;;;6.13;1.27;;;6.10;92.50;;;;;;4936532;29;20226;-66
2022/11/23 03:54:49;;;;;;;3.90;1.10;;;6.10;92.60;;;;;;4936492;29;20305;-66
2022/11/23 03:57:16;;;;;;;3.97;1.50;;;6.10;92.50;;;;;;4936382;29;20206;-68
2022/11/23 03:59:43;;;;;;;4.13;1.63;;;6.00;92.70;;;;;;4936563;29;20194;-66
2022/11/23 04:02:11;;;;;;;7.28;1.30;;;6.10;92.60;;;;;;4936258;29;20589;-66
2022/11/23 04:04:38;;;;;;;2.28;1.25;;;6.00;92.60;;;;;;4936415;28;20325;-66
2022/11/23 04:07:06;;;;;;;2.60;1.50;;;5.90;92.90;;;;;;4936278;29;20203;-66
2022/11/23 04:09:34;;;;;;;4.55;2.08;;;5.90;93.10;;;;;;4936536;29;20249;-66
2022/11/23 04:12:00;;;;;;;2.85;1.48;;;5.90;93.20;;;;;;4936320;29;20194;-66
2022/11/23 04:14:27;;;;;;;3.05;1.45;;;5.90;93.20;;;;;;4936290;29;20229;-66
2022/11/23 04:16:58;;;;;;;5.80;2.65;;;5.80;93.40;;;;;;4934025;29;20206;-66
2022/11/23 04:19:25;;;;;;;5.28;1.70;;;5.80;93.40;;;;;;4935349;29;20194;-66
2022/11/23 04:21:52;;;;;;;3.80;1.75;;;5.80;93.50;;;;;;4935302;29;20186;-66
2022/11/23 04:24:21;;;;;;;5.18;1.10;;;5.70;93.40;;;;;;4935380;29;20197;-66
2022/11/23 04:26:49;;;;;;;2.95;1.00;;;5.70;93.60;;;;;;4935685;29;20269;-67
2022/11/23 04:29:16;;;;;;;2.83;1.40;;;5.60;93.50;;;;;;4935409;29;20202;-66
2022/11/23 04:31:44;;;;;;;3.67;1.25;;;5.70;93.50;;;;;;4935394;29;20202;-67
2022/11/23 04:34:11;;;;;;;5.38;2.22;;;5.70;93.30;;;;;;4935614;29;20229;-66
2022/11/23 04:36:38;;;;;;;3.03;1.60;;;5.70;93.30;;;;;;4932157;29;20198;-66
2022/11/23 04:39:06;;;;;;;2.70;1.55;;;5.60;93.20;;;;;;4933392;29;20190;-66
2022/11/23 04:41:35;;;;;;;5.30;1.80;;;5.50;93.20;;;;;;4934974;29;20202;-66
2022/11/23 04:44:03;;;;;;;4.50;1.75;;;5.50;93.40;;;;;;4934238;29;20217;-66
2022/11/23 04:46:34;;;;;;;2.38;1.33;;;5.40;93.40;;;;;;4934323;29;20238;-66
2022/11/23 04:49:01;;;;;;;4.40;1.60;;;5.40;93.30;;;;;;4935467;29;20198;-66
2022/11/23 04:51:28;;;;;;;2.33;1.42;;;5.40;93.30;;;;;;4935394;29;20194;-66
2022/11/23 04:53:56;;;;;;;3.55;1.42;;;5.30;93.40;;;;;;4934903;29;20733;-67
2022/11/23 04:56:24;;;;;;;2.30;1.20;;;5.40;93.30;;;;;;4935628;29;20668;-66
2022/11/23 04:58:53;;;;;;;3.33;1.80;;;5.40;93.40;;;;;;4934778;29;20218;-66
2022/11/23 05:01:20;;;;;;;3.55;1.25;;;5.30;93.20;;;;;;4934119;29;20191;-67
2022/11/23 05:03:47;;;;;;;2.50;1.55;;;5.30;93.20;;;;;;4940947;29;20239;-67
2022/11/23 05:06:14;;;;;;;2.40;1.25;;;5.30;93.20;;;;;;4954806;29;20197;-67
2022/11/23 05:08:42;;;;;;;2.92;1.73;;;5.30;92.90;;;;;;4954804;29;20190;-66
2022/11/23 05:11:09;;;;;;;3.33;1.95;;;5.20;92.70;;;;;;4954951;29;20202;-66
2022/11/23 05:13:36;;;;;;;3.53;1.90;;;5.20;92.60;;;;;;4954372;29;20230;-66
2022/11/23 05:16:05;;;;;;;4.03;2.80;;;5.20;92.60;;;;;;4954568;29;20197;-66
2022/11/23 05:18:32;;;;;;;3.33;2.10;;;5.20;92.60;;;;;;4954713;29;20253;-66
2022/11/23 05:21:00;;;;;;;4.95;2.30;;;5.10;92.80;;;;;;4954845;29;20600;-66
2022/11/23 05:23:27;;;;;;;4.88;1.60;;;5.00;92.90;;;;;;4954903;29;20197;-66
2022/11/23 05:25:54;;;;;;;4.05;1.80;;;5.00;92.90;;;;;;4954311;29;20198;-66
2022/11/23 05:28:23;;;;;;;4.75;2.70;;;5.00;93.00;;;;;;4954141;29;20197;-66
2022/11/23 05:30:50;;;;;;;6.63;3.15;;;4.90;93.20;;;;;;4954581;29;20249;-67
2022/11/23 05:33:18;;;;;;;5.75;4.03;;;4.90;93.20;;;;;;4954512;29;20221;-66
2022/11/23 05:35:45;;;;;;;8.10;5.60;;;4.80;93.20;;;;;;4954526;29;20716;-67
2022/11/23 05:38:12;;;;;;;8.75;5.65;;;4.80;93.30;;;;;;4954595;29;20655;-66
2022/11/23 05:40:39;;;;;;;7.30;5.78;;;4.70;93.30;;;;;;4954723;29;20198;-66
2022/11/23 05:43:06;;;;;;;16.58;9.48;;;4.70;93.50;;;;;;4954396;29;20253;-66
2022/11/23 05:45:33;;;;;;;6.10;3.72;;;4.70;93.70;;;;;;4954806;29;20201;-66
2022/11/23 05:48:00;;;;;;;6.28;4.05;;;4.50;94.00;;;;;;4955413;28;20204;-66
2022/11/23 05:50:29;;;;;;;6.72;4.78;;;4.40;94.30;;;;;;4958392;29;20193;-66
2022/11/23 05:52:57;;;;;;;8.35;4.32;;;4.40;94.20;;;;;;4958075;29;20312;-66
2022/11/23 05:55:24;;;;;;;8.65;5.30;;;4.40;93.90;;;;;;4958210;29;20529;-66
2022/11/23 05:57:51;;;;;;;6.25;3.10;;;4.40;93.90;;;;;;4958136;29;20229;-66
2022/11/23 06:00:19;;;;;;;6.55;4.05;;;4.30;93.80;;;;;;4957908;29;20304;-66
2022/11/23 06:02:46;;;;;;;12.48;3.95;;;4.30;94.00;;;;;;4958186;29;20205;-66
2022/11/23 06:05:13;;;;;;;41.30;24.38;;;4.20;93.80;;;;;;4958132;29;20280;-67
2022/11/23 06:07:42;;;;;;;12.45;8.90;;;4.20;94.00;;;;;;4958058;29;20201;-66
2022/11/23 06:10:11;;;;;;;8.10;4.85;;;4.20;94.40;;;;;;4958077;29;20202;-66
2022/11/23 06:12:38;;;;;;;6.80;3.88;;;4.10;94.60;;;;;;4957817;29;20221;-65
2022/11/23 06:15:06;;;;;;;4.93;3.38;;;4.00;94.70;;;;;;4957793;29;20529;-66
2022/11/23 06:17:33;;;;;;;3.83;2.55;;;4.00;94.70;;;;;;4957951;29;20206;-65
2022/11/23 06:20:00;;;;;;;5.35;2.45;;;4.00;94.60;;;;;;4957831;29;20197;-66
2022/11/23 06:22:27;;;;;;;3.17;2.30;;;4.00;94.50;;;;;;4957625;29;20599;-66
2022/11/23 06:24:55;;;;;;;4.40;2.50;;;4.00;94.50;;;;;;4957756;29;20248;-66
2022/11/23 06:27:22;;;;;;;6.30;2.25;;;4.00;94.50;;;;;;4957563;29;20194;-66
2022/11/23 06:29:49;;;;;;;3.55;2.30;;;4.00;94.40;;;;;;4957719;29;20196;-66
2022/11/23 06:32:17;;;;;;;8.10;4.75;;;4.00;94.30;;;;;;4957380;29;20656;-66
2022/11/23 06:34:44;;;;;;;7.78;5.55;;;4.00;94.30;;;;;;4957559;29;20688;-67
2022/11/23 06:37:11;;;;;;;3.65;2.47;;;4.00;94.40;;;;;;4957591;29;20225;-67
2022/11/23 06:39:39;;;;;;;4.35;3.08;;;4.00;94.40;;;;;;4957409;29;20198;-66
2022/11/23 06:42:07;;;;;;;3.88;2.78;;;4.00;94.50;;;;;;4957359;29;20537;-66
2022/11/23 06:44:34;;;;;;;4.55;2.50;;;4.10;94.60;;;;;;4957352;29;20587;-66
2022/11/23 06:47:01;;;;;;;5.85;2.80;;;4.10;94.30;;;;;;4957377;29;20249;-66
2022/11/23 06:49:28;;;;;;;6.85;3.80;;;4.00;93.90;;;;;;4957291;29;20256;-67
2022/11/23 06:51:55;;;;;;;3.67;2.80;;;4.00;93.50;;;;;;4957263;29;20200;-65
2022/11/23 06:54:22;;;;;;;6.50;3.15;;;3.90;93.20;;;;;;4957058;29;20221;-66
2022/11/23 06:56:49;;;;;;;9.15;5.03;;;3.90;92.90;;;;;;4957217;29;20587;-66
2022/11/23 06:59:18;;;;;;;6.88;4.85;;;3.90;93.10;;;;;;4956666;28;20229;-66
2022/11/23 07:01:45;;;;;;;10.80;3.72;;;4.00;93.40;;;;;;4957084;29;20553;-66
2022/11/23 07:04:12;;;;;;;5.25;2.95;;;4.10;93.50;;;;;;4956816;29;20257;-66
2022/11/23 07:06:41;;;;;;;3.25;2.42;;;4.30;93.20;;;;;;4957082;29;20233;-66
2022/11/23 07:09:09;;;;;;;5.57;2.60;;;4.50;93.30;;;;;;4956940;29;20265;-65
2022/11/23 07:11:36;;;;;;;3.65;2.22;;;4.60;92.60;;;;;;4956865;29;20205;-66
2022/11/23 07:14:03;;;;;;;4.60;2.22;;;4.80;93.00;;;;;;4956310;29;20771;-66
2022/11/23 07:16:32;;;;;;;4.55;2.72;;;5.20;91.90;;;;;;4956780;29;20218;-67
2022/11/23 07:18:59;;;;;;;5.43;3.20;;;5.50;91.40;;;;;;4956221;29;20225;-66
2022/11/23 07:21:26;;;;;;;6.28;3.47;;;5.70;91.50;;;;;;4956763;29;20231;-66
2022/11/23 07:23:53;;;;;;;8.00;3.92;;;6.00;91.40;;;;;;4956728;29;20193;-66
2022/11/23 07:26:21;;;;;;;4.35;2.85;;;6.10;90.00;;;;;;4956527;29;20229;-67
2022/11/23 07:28:48;;;;;;;8.75;4.40;;;6.30;89.20;;;;;;4956560;29;20201;-66
2022/11/23 07:31:15;;;;;;;8.48;5.07;;;6.60;89.10;;;;;;4956520;29;20283;-66
2022/11/23 07:33:45;;;;;;;11.02;5.53;;;6.90;87.90;;;;;;4956533;29;20577;-66
2022/11/23 07:36:13;;;;;;;9.48;5.55;;;7.00;85.60;;;;;;4956067;29;20182;-67
2022/11/23 07:38:40;;;;;;;7.57;5.07;;;6.90;83.20;;;;;;4956435;29;20205;-66
2022/11/23 07:41:07;;;;;;;6.63;4.20;;;6.60;83.30;;;;;;4956001;29;20194;-66
2022/11/23 07:43:34;;;;;;;20.65;12.48;;;6.50;83.10;;;;;;4955947;29;20220;-66
2022/11/23 07:46:01;;;;;;;18.23;8.45;;;6.60;84.10;;;;;;4956213;29;20198;-66
2022/11/23 07:48:28;;;;;;;21.63;12.55;;;6.90;83.70;;;;;;4955869;29;20284;-66
2022/11/23 07:50:57;;;;;;;22.30;12.55;;;7.30;81.80;;;;;;4956168;29;20659;-66
2022/11/23 07:53:24;;;;;;;11.68;8.93;;;7.40;80.80;;;;;;4955650;29;20780;-66
2022/11/23 07:55:57;;;;;;;5.15;4.63;;;7.20;79.80;;;;;;4956012;29;20201;-66
2022/11/23 07:58:24;;;;;;;4.30;3.50;;;6.80;79.20;;;;;;4955871;29;20197;-67
2022/11/23 08:00:51;;;;;;;5.32;3.60;;;6.50;80.60;;;;;;4955766;29;20198;-66
2022/11/23 08:03:18;;;;;;;4.43;3.75;;;6.30;81.80;;;;;;4955386;29;20257;-67
2022/11/23 08:05:46;;;;;;;5.13;4.18;;;6.20;82.00;;;;;;4956056;29;20193;-66
2022/11/23 08:08:14;;;;;;;5.72;4.78;;;6.10;82.80;;;;;;4955660;29;20328;-66
2022/11/23 08:10:41;;;;;;;7.90;5.85;;;6.00;84.10;;;;;;4955090;28;20198;-66
2022/11/23 08:13:08;;;;;;;7.70;4.55;;;6.40;84.80;;;;;;4955600;29;20197;-66
2022/11/23 08:15:36;;;;;;;6.40;5.00;;;7.00;84.50;;;;;;4955178;29;20253;-66
2022/11/23 08:18:04;;;;;;;10.18;6.55;;;7.70;83.20;;;;;;4955668;29;20204;-66
2022/11/23 08:20:32;;;;;;;8.63;6.43;;;8.30;82.10;;;;;;4955272;29;20193;-67
2022/11/23 08:22:59;;;;;;;7.55;5.32;;;9.00;80.90;;;;;;4955165;29;20285;-66
2022/11/23 08:25:29;;;;;;;7.47;6.22;;;9.70;79.50;;;;;;4955533;29;20201;-66
2022/11/23 08:27:57;;;;;;;11.60;7.40;;;10.30;76.10;;;;;;4955393;29;20249;-67
2022/11/23 08:30:24;;;;;;;10.93;7.90;;;10.90;76.00;;;;;;4955452;29;20197;-67
2022/11/23 08:32:51;;;;;;;8.90;6.97;;;11.50;74.20;;;;;;4954996;29;20194;-67
2022/11/23 08:35:18;;;;;;;7.95;5.40;;;12.00;70.90;;;;;;4955181;29;20221;-67
2022/11/23 08:37:45;;;;;;;7.05;4.85;;;12.30;65.80;;;;;;4955244;29;20198;-67
2022/11/23 08:40:14;;;;;;;7.22;3.95;;;12.60;63.70;;;;;;4955264;29;20638;-66
2022/11/23 08:42:42;;;;;;;5.53;2.83;;;12.90;64.90;;;;;;4955089;29;20204;-67
2022/11/23 08:45:11;;;;;;;2.97;1.90;;;13.30;61.70;;;;;;4955312;29;20192;-67
2022/11/23 08:47:38;;;;;;;2.30;1.50;;;13.60;59.40;;;;;;4955088;29;20196;-66
2022/11/23 08:50:06;;;;;;;4.80;2.30;;;13.70;56.10;;;;;;4954996;29;20459;-67
2022/11/23 08:52:33;;;;;;;4.50;2.40;;;13.80;56.60;;;;;;4955012;29;20457;-66
2022/11/23 08:55:00;;;;;;;5.37;2.97;;;13.90;54.50;;;;;;4954993;29;20514;-67
2022/11/23 08:57:27;;;;;;;3.53;2.63;;;14.10;53.80;;;;;;4954966;29;20458;-67
2022/11/23 08:59:56;;;;;;;3.73;2.30;;;14.10;52.20;;;;;;4955024;29;20485;-67
2022/11/23 09:02:23;;;;;;;3.73;2.03;;;14.30;52.00;;;;;;4954956;29;20441;-67
2022/11/23 09:04:50;;;;;;;3.10;2.27;;;14.60;52.30;;;;;;4954966;29;20483;-67
2022/11/23 09:07:17;;;;;;;3.00;1.70;;;14.90;51.00;;;;;;4954871;29;20448;-66
2022/11/23 09:09:44;;;;;;;4.50;2.80;;;15.00;49.30;;;;;;4955029;29;20508;-67
2022/11/23 09:12:11;;;;;;;4.47;1.30;;;15.20;51.60;;;;;;4954900;29;21007;-66
2022/11/23 09:14:38;;;;;;;2.73;1.50;;;15.70;49.60;;;;;;4954778;29;20504;-67
2022/11/23 09:17:07;;;;;;;4.67;1.33;;;15.90;47.60;;;;;;4954939;29;20532;-67
2022/11/23 09:19:34;;;;;;;5.17;1.60;;;16.10;46.80;;;;;;4954589;29;20504;-67
2022/11/23 09:22:01;;;;;;;3.67;1.30;;;16.20;45.70;;;;;;4955521;28;20519;-67
2022/11/23 09:24:28;;;;;;;5.80;3.10;;;16.40;45.80;;;;;;4958908;29;20539;-67
2022/11/23 09:26:56;;;;;;;2.80;1.20;;;16.70;44.00;;;;;;4958338;29;20441;-67
2022/11/23 09:29:24;;;;;;;5.40;2.90;;;16.90;46.10;;;;;;4958658;29;20449;-67
2022/11/23 09:31:51;;;;;;;5.13;1.40;;;17.40;44.30;;;;;;4958644;29;20441;-67
2022/11/23 09:34:20;;;;;;;2.50;1.30;;;17.90;44.30;;;;;;4958472;29;20496;-68
2022/11/23 09:36:47;;;;;;;7.03;4.40;;;18.40;43.10;;;;;;4958397;29;20481;-68
2022/11/23 09:39:14;;;;;;;6.43;2.23;;;18.50;41.40;;;;;;4958484;29;20450;-67
2022/11/23 09:42:13;;;;;;;2.03;1.10;;;18.50;40.20;;;;;;4958425;29;20437;-67
2022/11/23 09:44:56;;;;;;;5.17;1.43;;;18.70;38.60;;;;;;4948521;29;20484;-67
2022/11/23 09:47:45;;;;;;;2.33;0.80;;;18.80;41.30;;;;;;4957883;29;20516;-67
2022/11/23 09:50:24;;;;;;;4.77;0.87;;;19.20;38.70;;;;;;4958488;29;20533;-67
2022/11/23 09:52:53;;;;;;;2.87;1.40;;;19.20;38.00;;;;;;4957921;29;20957;-67
2022/11/23 09:55:29;;;;;;;4.20;1.27;;;19.50;36.80;;;;;;4958301;29;20543;-67
2022/11/23 09:58:01;;;;;;;4.00;1.30;;;19.80;37.80;;;;;;4958261;29;20540;-67
2022/11/23 10:00:35;;;;;;;2.93;1.37;;;20.20;38.10;;;;;;4958131;29;20928;-67
2022/11/23 10:03:02;;;;;;;5.00;1.10;;;20.50;35.90;;;;;;4957537;29;20933;-67
2022/11/23 10:05:37;;;;;;;3.33;1.43;;;20.80;37.20;;;;;;4957782;29;20496;-67
2022/11/23 10:08:12;;;;;;;3.50;1.40;;;21.30;36.40;;;;;;4957793;29;20531;-67
2022/11/23 10:10:44;;;;;;;2.23;1.00;;;21.80;34.40;;;;;;4957992;29;20437;-67
2022/11/23 10:13:27;;;;;;;3.10;1.70;;;21.80;33.20;;;;;;4957984;29;20449;-67
2022/11/23 10:16:08;;;;;;;5.77;1.57;;;21.70;33.50;;;;;;4957850;29;20437;-67
2022/11/23 10:18:44;;;;;;;3.80;1.17;;;21.60;32.00;;;;;;4957829;29;20445;-66
2022/11/23 10:21:21;;;;;;;5.33;1.50;;;21.60;32.50;;;;;;4957771;29;20535;-67
2022/11/23 10:23:54;;;;;;;2.97;1.87;;;21.70;33.20;;;;;;4957934;29;20445;-67
2022/11/23 10:26:28;;;;;;;2.40;0.80;;;21.80;30.50;;;;;;4957259;29;20928;-67
2022/11/23 10:28:56;;;;;;;1.90;0.70;;;21.90;30.50;;;;;;4957503;29;20456;-67
2022/11/23 10:31:24;;;;;;;3.70;1.00;;;21.70;30.30;;;;;;4957244;29;20438;-67
2022/11/23 10:34:02;;;;;;;2.80;1.00;;;21.40;30.80;;;;;;4956539;28;20477;-66
2022/11/23 10:36:31;;;;;;;2.73;0.90;;;21.70;32.50;;;;;;4957625;29;20466;-66
2022/11/23 10:39:00;;;;;;;3.87;1.17;;;22.40;32.50;;;;;;4957593;29;20500;-66
2022/11/23 10:41:30;;;;;;;4.17;1.10;;;22.90;30.60;;;;;;4957347;29;20454;-66
2022/11/23 10:44:05;;;;;;;4.27;1.13;;;23.10;30.20;;;;;;4957283;29;20804;-66
2022/11/23 10:46:39;;;;;;;2.47;0.80;;;23.60;30.00;;;;;;4957408;29;20544;-66
2022/11/23 10:49:21;;;;;;;3.03;0.80;;;23.50;27.80;;;;;;4957262;29;20445;-66
2022/11/23 10:51:54;;;;;;;2.50;0.67;;;23.40;28.60;;;;;;4957166;29;20476;-67
2022/11/23 10:54:32;;;;;;;2.57;0.80;;;23.70;28.80;;;;;;4957120;29;20520;-66
2022/11/23 10:57:01;;;;;;;2.10;0.90;;;23.80;26.50;;;;;;4957138;29;20449;-67
2022/11/23 10:59:42;;;;;;;2.10;0.70;;;23.70;26.20;;;;;;4956800;29;20460;-66
2022/11/23 11:02:29;;;;;;;2.60;0.70;;;23.40;26.00;;;;;;4957319;29;20448;-66
2022/11/23 11:05:21;;;;;;;2.00;0.73;;;23.30;25.90;;;;;;4956963;29;20505;-66
2022/11/23 11:07:50;;;;;;;2.37;1.00;;;23.00;25.40;;;;;;4957153;29;20456;-66
2022/11/23 11:10:40;;;;;;;3.00;0.80;;;22.60;25.70;;;;;;4956869;29;20964;-67
2022/11/23 11:13:28;;;;;;;3.40;0.80;;;22.50;25.60;;;;;;4956689;29;20448;-66
2022/11/23 11:15:57;;;;;;;3.40;0.80;;;22.40;26.00;;;;;;4956942;29;20580;-66
2022/11/23 11:18:30;;;;;;;4.43;0.93;;;22.30;26.70;;;;;;4956730;29;20509;-66
2022/11/23 11:21:00;;;;;;;2.80;0.87;;;22.70;26.50;;;;;;4956790;29;20457;-66
2022/11/23 11:23:30;;;;;;;3.53;0.80;;;22.40;26.00;;;;;;4956784;29;20802;-66
2022/11/23 11:26:08;;;;;;;5.57;1.43;;;22.60;26.30;;;;;;4956224;29;20485;-66
2022/11/23 11:28:38;;;;;;;4.23;0.80;;;22.70;25.20;;;;;;4956214;29;20991;-68
2022/11/23 11:31:45;;;;;;;2.90;0.80;;;22.40;26.50;;;;;;4956571;29;20469;-66
2022/11/23 11:34:20;;;;;;;3.50;0.70;;;22.00;26.80;;;;;;4956353;29;20476;-66
2022/11/23 11:36:54;;;;;;;2.43;0.90;;;21.80;27.00;;;;;;4956052;29;20512;-66
2022/11/23 11:39:28;;;;;;;2.17;0.87;;;21.90;27.10;;;;;;4956004;29;20923;-66
2022/11/23 11:41:59;;;;;;;2.90;1.03;;;21.80;26.60;;;;;;4956462;29;20448;-65
2022/11/23 11:44:27;;;;;;;3.10;0.90;;;21.70;27.20;;;;;;4955740;29;20456;-66
2022/11/23 11:47:00;;;;;;;5.67;1.07;;;21.80;26.80;;;;;;4955365;28;20504;-66
2022/11/23 11:49:31;;;;;;;3.67;1.07;;;21.40;27.10;;;;;;4956224;29;20446;-66
2022/11/23 11:52:06;;;;;;;2.00;0.80;;;21.20;26.90;;;;;;4956261;29;20449;-66
2022/11/23 11:54:41;;;;;;;3.63;1.10;;;21.30;28.00;;;;;;4956094;29;20473;-66
2022/11/23 11:57:19;;;;;;;2.30;1.00;;;20.90;27.90;;;;;;4956092;29;20940;-65
2022/11/23 11:59:51;;;;;;;2.10;0.90;;;20.50;26.90;;;;;;4956153;29;20551;-66
2022/11/23 12:02:24;;;;;;;2.87;0.97;;;20.50;26.90;;;;;;4956066;29;20448;-66
2022/11/23 12:05:00;;;;;;;2.27;0.73;;;20.50;26.80;;;;;;4955982;29;20473;-67
2022/11/23 12:07:32;;;;;;;4.47;1.10;;;20.30;28.00;;;;;;4955743;29;20468;-66
2022/11/23 12:10:07;;;;;;;3.10;1.00;;;20.00;27.90;;;;;;4955895;29;20531;-66
2022/11/23 12:12:37;;;;;;;2.97;1.00;;;19.90;28.40;;;;;;4955926;29;20437;-66
2022/11/23 12:15:05;;;;;;;3.73;0.90;;;20.10;29.10;;;;;;4955835;29;20491;-66
2022/11/23 12:17:57;;;;;;;3.50;1.20;;;20.10;29.50;;;;;;4955802;29;20442;-66
2022/11/23 12:20:30;;;;;;;3.00;1.17;;;19.90;29.70;;;;;;4955401;29;20987;-66
2022/11/23 12:23:21;;;;;;;2.63;0.80;;;19.70;29.10;;;;;;4955595;29;20445;-66
2022/11/23 12:25:58;;;;;;;4.37;0.90;;;19.50;29.10;;;;;;4955486;29;20492;-66
2022/11/23 12:28:44;;;;;;;1.70;0.80;;;19.30;28.30;;;;;;4955580;29;20469;-66
2022/11/23 12:31:20;;;;;;;4.87;0.90;;;19.00;28.50;;;;;;4955639;29;20851;-66
2022/11/23 12:34:04;;;;;;;3.50;1.03;;;18.90;29.00;;;;;;4955463;29;20449;-66
2022/11/23 12:36:59;;;;;;;3.10;0.90;;;18.90;29.50;;;;;;4955292;29;20521;-65
2022/11/23 12:39:54;;;;;;;2.53;1.00;;;18.90;30.00;;;;;;4949909;29;20456;-66
2022/11/23 12:42:28;;;;;;;3.03;0.80;;;19.00;29.20;;;;;;4952902;28;20864;-66
2022/11/23 12:45:16;;;;;;;4.07;1.10;;;19.10;29.90;;;;;;4955432;29;20437;-66
2022/11/23 12:47:50;;;;;;;2.83;0.77;;;19.30;28.70;;;;;;4952924;29;20528;-66
2022/11/23 12:50:27;;;;;;;3.17;1.00;;;19.30;28.20;;;;;;4955386;29;20449;-65
2022/11/23 12:53:05;;;;;;;2.20;0.70;;;19.10;28.30;;;;;;4955049;29;20812;-65
2022/11/23 12:55:43;;;;;;;3.10;0.70;;;18.90;27.80;;;;;;4954893;29;20828;-65
2022/11/23 12:58:19;;;;;;;5.10;0.80;;;18.50;27.10;;;;;;4954641;28;20492;-65
2022/11/23 13:00:52;;;;;;;4.00;1.43;;;18.00;25.30;;;;;;4954703;29;20448;-66
2022/11/23 13:03:52;;;;;;;2.03;0.50;;;17.80;27.70;;;;;;4954817;29;20549;-66
2022/11/23 13:06:52;;;;;;;2.00;0.80;;;17.50;28.80;;;;;;4924054;29;20935;-66
2022/11/23 13:09:41;;;;;;;2.03;0.80;;;16.90;29.60;;;;;;4955263;29;20445;-65